aviador You're here:

KBFW Decoded Metar

SILVER BAY in MN, USA
Report Time2017-07-21 04:14:00
UTC Time2017-07-21 04:33:48
Flight Rules vfr VFR
WindCalm
Visibility9999 m
Phenomena:N/A
Clouds:N/A
Expected CloudBase > 400 ft AGL from Temp-Dew spread
CeilingNone
Temp17°C (ISA +4)
Dew Point16°C (94% RH)
QNH1015 hPa
Density Alt1,755 ft
Elevation1,086 ft
Report Wrong Elevation
Raw Report
KBFW 210414Z AUTO 00000KT 10SM CLR 17/16 A2996 RMK AO2=

Extra information for KBFW:More info

Metar Taf Metar & Taf Last 4 Metars F.Rules Stats Wind Profile Meteogram Temp Stats Airport Information Weather charts Add Link Nearby VenuesMetar ALERT Operation Metar Decoded Social comments

AIRNAV info for KBFW